createdAt,value
2017-08-28T00:00:12.140Z,22.30
2017-08-28T00:02:40.413Z,22.20
2017-08-28T00:05:08.658Z,22.20
2017-08-28T00:07:36.906Z,22.10
2017-08-28T00:10:05.182Z,22.00
2017-08-28T00:12:33.425Z,22.00
2017-08-28T00:15:01.680Z,22.10
2017-08-28T00:17:30.582Z,22.10
2017-08-28T00:19:58.834Z,22.00
2017-08-28T00:22:27.086Z,22.00
2017-08-28T00:24:55.357Z,21.90
2017-08-28T00:27:23.622Z,21.90
2017-08-28T00:29:52.634Z,21.90
2017-08-28T00:32:20.914Z,21.80
2017-08-28T00:34:49.161Z,21.80
2017-08-28T00:37:18.178Z,21.60
2017-08-28T00:39:46.782Z,21.50
2017-08-28T00:42:15.022Z,21.50
2017-08-28T00:44:43.262Z,21.40
2017-08-28T00:47:11.528Z,21.40
2017-08-28T00:49:40.118Z,21.30
2017-08-28T00:52:08.361Z,21.20
2017-08-28T00:54:36.630Z,21.10
2017-08-28T00:57:04.870Z,21.10
2017-08-28T00:59:33.115Z,21.00
2017-08-28T01:02:01.881Z,21.00
2017-08-28T01:04:30.122Z,21.00
2017-08-28T01:06:58.369Z,21.00
2017-08-28T01:09:26.634Z,21.00
2017-08-28T01:11:54.881Z,20.90
2017-08-28T01:14:23.126Z,20.90
2017-08-28T01:16:52.190Z,20.80
2017-08-28T01:19:21.190Z,20.70
2017-08-28T01:21:49.434Z,20.70
2017-08-28T01:24:18.219Z,20.70
2017-08-28T01:26:46.517Z,20.70
2017-08-28T01:29:14.767Z,20.70
2017-08-28T01:31:43.033Z,20.60
2017-08-28T01:34:11.281Z,20.60
2017-08-28T01:36:39.525Z,20.60
2017-08-28T01:39:07.789Z,20.50
2017-08-28T01:41:36.018Z,20.50
2017-08-28T01:44:05.025Z,20.50
2017-08-28T01:46:33.399Z,20.50
2017-08-28T01:49:01.643Z,20.50
2017-08-28T01:51:30.244Z,20.40
2017-08-28T01:53:58.509Z,20.40
2017-08-28T01:56:26.749Z,20.30
2017-08-28T01:58:54.990Z,20.30
2017-08-28T02:01:23.262Z,20.30
2017-08-28T02:03:51.503Z,20.30
2017-08-28T02:06:19.970Z,20.20
2017-08-28T02:08:48.725Z,20.20
2017-08-28T02:11:16.973Z,20.20
2017-08-28T02:13:45.214Z,20.20
2017-08-28T02:16:13.509Z,20.20
2017-08-28T02:18:41.753Z,20.20
2017-08-28T02:21:09.998Z,20.10
2017-08-28T02:23:38.350Z,20.10
2017-08-28T02:26:07.362Z,20.00
2017-08-28T02:28:36.366Z,20.00
2017-08-28T02:31:04.686Z,20.00
2017-08-28T02:33:32.938Z,20.00
2017-08-28T02:36:01.185Z,20.00
2017-08-28T02:38:29.441Z,20.00
2017-08-28T02:40:57.678Z,19.90
2017-08-28T02:43:25.918Z,19.90
2017-08-28T02:45:54.185Z,19.80
2017-08-28T02:48:22.423Z,19.70
2017-08-28T02:50:50.663Z,19.70
2017-08-28T02:53:19.330Z,19.80
2017-08-28T02:55:47.574Z,19.70
2017-08-28T02:58:15.818Z,19.70
2017-08-28T03:00:44.081Z,19.60
2017-08-28T03:03:12.330Z,19.50
2017-08-28T03:05:40.594Z,19.40
2017-08-28T03:08:08.866Z,19.40
2017-08-28T03:10:37.106Z,19.50
2017-08-28T03:13:05.346Z,19.50
2017-08-28T03:15:34.042Z,19.60
2017-08-28T03:18:02.277Z,19.60
2017-08-28T03:20:30.518Z,19.60
2017-08-28T03:22:58.787Z,19.50
2017-08-28T03:25:27.028Z,19.40
2017-08-28T03:27:55.274Z,19.30
2017-08-28T03:30:24.311Z,19.20
2017-08-28T03:32:52.554Z,19.20
2017-08-28T03:35:20.793Z,19.10
2017-08-28T03:37:49.109Z,19.10
2017-08-28T03:40:17.354Z,19.00
2017-08-28T03:42:45.603Z,19.00
2017-08-28T03:45:13.871Z,19.00
2017-08-28T03:47:42.126Z,19.00
2017-08-28T03:50:10.368Z,19.00
2017-08-28T03:52:38.754Z,19.10
2017-08-28T03:55:07.446Z,19.00
2017-08-28T03:57:36.470Z,19.00
2017-08-28T04:00:04.956Z,19.00
2017-08-28T04:02:33.224Z,19.00
2017-08-28T04:05:01.454Z,18.90
2017-08-28T04:07:29.998Z,18.90
2017-08-28T04:09:58.233Z,18.80
2017-08-28T04:12:27.246Z,18.90
2017-08-28T04:14:55.505Z,18.90
2017-08-28T04:17:23.750Z,18.80
2017-08-28T04:19:51.993Z,18.80
2017-08-28T04:22:20.627Z,18.80
2017-08-28T04:24:48.886Z,18.80
2017-08-28T04:27:17.134Z,18.80
2017-08-28T04:29:45.398Z,18.80
2017-08-28T04:32:13.638Z,18.90
2017-08-28T04:34:41.891Z,18.80
2017-08-28T04:37:10.156Z,18.70
2017-08-28T04:39:38.403Z,18.70
2017-08-28T04:42:06.662Z,18.70
2017-08-28T04:44:35.378Z,18.70
2017-08-28T04:47:03.626Z,18.70
2017-08-28T04:49:31.866Z,18.60
2017-08-28T04:52:00.130Z,18.60
2017-08-28T04:54:28.380Z,18.60
2017-08-28T04:56:56.926Z,18.60
2017-08-28T04:59:25.202Z,18.50
2017-08-28T05:01:53.445Z,18.50
2017-08-28T05:04:21.695Z,18.50
2017-08-28T05:06:51.397Z,18.50
2017-08-28T05:09:19.650Z,18.60
2017-08-28T05:11:47.886Z,18.60
2017-08-28T05:14:16.173Z,18.50
2017-08-28T05:16:44.419Z,18.60
2017-08-28T05:19:12.666Z,18.50
2017-08-28T05:21:40.936Z,18.50
2017-08-28T05:24:09.178Z,18.50
2017-08-28T05:26:37.421Z,18.50
2017-08-28T05:29:05.914Z,18.50
2017-08-28T05:31:34.221Z,18.60
2017-08-28T05:34:04.257Z,18.60
2017-08-28T05:36:33.774Z,18.60
2017-08-28T05:39:04.727Z,18.60
2017-08-28T05:41:33.353Z,18.60
2017-08-28T05:44:01.691Z,18.60
2017-08-28T05:46:29.965Z,18.70
2017-08-28T05:48:58.194Z,18.70
2017-08-28T05:51:26.829Z,18.80
2017-08-28T05:53:57.183Z,18.80
2017-08-28T05:56:25.942Z,18.90
2017-08-28T05:58:54.410Z,18.90
2017-08-28T06:01:23.750Z,19.00
2017-08-28T06:03:51.995Z,19.00
2017-08-28T06:06:20.254Z,19.00
2017-08-28T06:08:48.495Z,19.10
2017-08-28T06:11:16.760Z,19.10
2017-08-28T06:13:45.622Z,19.20
2017-08-28T06:16:13.862Z,19.30
2017-08-28T06:18:42.102Z,19.30
2017-08-28T06:21:13.926Z,19.40
2017-08-28T06:23:42.216Z,19.50
2017-08-28T06:26:12.376Z,19.50
2017-08-28T06:28:40.625Z,19.60
2017-08-28T06:31:12.814Z,19.70
2017-08-28T06:33:42.482Z,19.70
2017-08-28T06:36:11.708Z,19.80
2017-08-28T06:38:39.953Z,19.80
2017-08-28T06:41:08.227Z,19.80
2017-08-28T06:43:36.563Z,19.80
2017-08-28T06:46:05.580Z,19.70
2017-08-28T06:48:34.597Z,19.70
2017-08-28T06:51:02.851Z,19.70
2017-08-28T06:53:31.090Z,19.70
2017-08-28T06:56:01.176Z,19.80
2017-08-28T06:58:29.782Z,19.80
2017-08-28T07:00:58.134Z,19.90
2017-08-28T07:03:26.405Z,20.00
2017-08-28T07:05:54.642Z,20.10
2017-08-28T07:08:23.390Z,20.10
2017-08-28T07:10:51.650Z,20.20
2017-08-28T07:13:19.889Z,20.30
2017-08-28T07:15:48.227Z,20.30
2017-08-28T07:18:16.986Z,20.40
2017-08-28T07:20:46.746Z,20.50
2017-08-28T07:23:15.826Z,20.70
2017-08-28T07:25:44.119Z,20.70
2017-08-28T07:28:18.619Z,20.80
2017-08-28T07:30:48.087Z,20.80
2017-08-28T07:33:16.330Z,20.90
2017-08-28T07:35:44.565Z,21.10
2017-08-28T07:38:13.437Z,21.20
2017-08-28T07:40:42.288Z,21.30
2017-08-28T07:43:12.122Z,21.60
2017-08-28T07:45:40.968Z,21.60
2017-08-28T07:48:09.205Z,21.80
2017-08-28T07:50:38.697Z,21.90
2017-08-28T07:53:06.978Z,22.00
2017-08-28T07:55:35.225Z,22.10
2017-08-28T07:58:03.457Z,22.20
2017-08-28T08:00:32.026Z,22.20
2017-08-28T08:03:01.717Z,22.20
2017-08-28T08:05:29.941Z,22.30
2017-08-28T08:07:58.208Z,22.30
2017-08-28T08:10:26.442Z,22.20
2017-08-28T08:12:54.682Z,22.20
2017-08-28T08:15:22.959Z,22.20
2017-08-28T08:17:51.194Z,22.20
2017-08-28T08:20:19.434Z,22.10
2017-08-28T08:22:47.746Z,22.20
2017-08-28T08:25:15.990Z,22.20
2017-08-28T08:27:44.222Z,22.20
2017-08-28T08:30:12.497Z,22.20
2017-08-28T08:32:40.741Z,22.20
2017-08-28T08:35:08.980Z,22.20
2017-08-28T08:37:37.526Z,22.20
2017-08-28T08:40:05.766Z,22.30
2017-08-28T08:42:35.133Z,22.40
2017-08-28T08:45:03.563Z,22.50
2017-08-28T08:47:31.799Z,22.50
2017-08-28T08:50:00.802Z,22.50
2017-08-28T08:52:29.150Z,22.50
2017-08-28T08:54:57.393Z,22.60
2017-08-28T08:57:25.643Z,22.60
2017-08-28T08:59:53.959Z,22.60
2017-08-28T09:02:22.198Z,22.60
2017-08-28T09:04:51.674Z,22.70
2017-08-28T09:07:20.999Z,22.80
2017-08-28T09:09:49.250Z,22.80
2017-08-28T09:12:17.494Z,22.90
2017-08-28T09:14:45.759Z,22.90
2017-08-28T09:17:14.153Z,22.90
2017-08-28T09:19:42.434Z,22.90
2017-08-28T09:22:10.690Z,23.00
2017-08-28T09:24:38.935Z,23.10
2017-08-28T09:27:07.358Z,23.10
2017-08-28T09:29:35.917Z,23.20
2017-08-28T09:32:04.159Z,23.30
2017-08-28T09:34:36.769Z,23.40
2017-08-28T09:37:05.822Z,23.40
2017-08-28T09:39:34.830Z,23.40
2017-08-28T09:42:04.804Z,23.40
2017-08-28T09:44:34.154Z,23.50
2017-08-28T09:47:02.393Z,23.60
2017-08-28T09:49:30.630Z,23.70
2017-08-28T09:52:01.674Z,23.70
2017-08-28T09:54:30.126Z,23.80
2017-08-28T09:56:58.357Z,23.90
2017-08-28T09:59:26.626Z,24.00
2017-08-28T10:01:54.862Z,24.00
2017-08-28T10:04:23.106Z,24.10
2017-08-28T10:06:51.630Z,24.10
2017-08-28T10:09:19.874Z,24.10
2017-08-28T10:11:48.311Z,24.20
2017-08-28T10:14:16.634Z,24.30
2017-08-28T10:16:44.877Z,24.30
2017-08-28T10:19:13.122Z,24.40
2017-08-28T10:21:41.386Z,24.50
2017-08-28T10:24:09.625Z,24.50
2017-08-28T10:26:37.365Z,24.50
2017-08-28T10:29:05.954Z,24.60
2017-08-28T10:31:34.185Z,24.70
2017-08-28T10:34:02.455Z,24.80
2017-08-28T10:36:30.977Z,25.00
2017-08-28T10:38:59.238Z,25.20
2017-08-28T10:41:28.015Z,25.60
2017-08-28T10:43:56.281Z,26.10
2017-08-28T10:46:24.530Z,26.90
2017-08-28T10:48:52.862Z,28.10
2017-08-28T10:51:21.114Z,29.40
2017-08-28T10:53:49.357Z,30.40
2017-08-28T10:56:17.598Z,31.10
2017-08-28T10:58:52.245Z,31.60
2017-08-28T11:01:20.488Z,32.10
2017-08-28T11:03:48.726Z,32.20
2017-08-28T11:06:17.003Z,32.40
2017-08-28T11:08:47.830Z,33.10
2017-08-28T11:11:16.420Z,33.10
2017-08-28T11:13:44.674Z,33.50
2017-08-28T11:16:13.669Z,34.00
2017-08-28T11:18:42.998Z,34.40
2017-08-28T11:21:14.069Z,34.50
2017-08-28T11:23:44.145Z,34.30
2017-08-28T11:26:12.390Z,33.50
2017-08-28T11:28:40.666Z,33.40
2017-08-28T11:31:09.051Z,33.80
2017-08-28T11:33:38.214Z,34.60
2017-08-28T11:36:06.479Z,35.10
2017-08-28T11:38:35.455Z,35.60
2017-08-28T11:41:03.699Z,36.10
2017-08-28T11:43:32.238Z,36.60
2017-08-28T11:46:00.482Z,37.00
2017-08-28T11:48:28.726Z,36.90
2017-08-28T11:50:56.989Z,36.70
2017-08-28T11:53:25.374Z,36.70
2017-08-28T11:55:53.610Z,37.20
2017-08-28T11:58:21.890Z,37.60
2017-08-28T12:00:50.134Z,38.00
2017-08-28T12:03:20.767Z,38.30
2017-08-28T12:05:49.078Z,38.50
2017-08-28T12:08:17.429Z,38.00
2017-08-28T12:10:46.669Z,36.80
2017-08-28T12:13:14.926Z,35.40
2017-08-28T12:15:43.283Z,34.30
2017-08-28T12:18:12.282Z,34.60
2017-08-28T12:20:40.554Z,34.60
2017-08-28T12:23:08.794Z,36.00
2017-08-28T12:25:39.416Z,37.40
2017-08-28T12:28:07.750Z,38.50
2017-08-28T12:30:36.171Z,39.20
2017-08-28T12:33:04.390Z,39.30
2017-08-28T12:35:33.426Z,40.00
2017-08-28T12:38:01.712Z,40.00
2017-08-28T12:40:29.950Z,40.40
2017-08-28T12:42:58.209Z,40.70
2017-08-28T12:45:27.225Z,41.10
2017-08-28T12:47:55.470Z,41.10
2017-08-28T12:50:24.005Z,41.30
2017-08-28T12:52:52.343Z,41.60
2017-08-28T12:55:20.782Z,41.60
2017-08-28T12:57:49.026Z,41.80
2017-08-28T13:00:17.446Z,41.90
2017-08-28T13:02:45.698Z,42.20
2017-08-28T13:05:13.950Z,42.20
2017-08-28T13:07:42.198Z,41.80
2017-08-28T13:10:11.204Z,41.80
2017-08-28T13:12:40.090Z,41.80
2017-08-28T13:15:08.333Z,42.40
2017-08-28T13:17:36.590Z,42.70
2017-08-28T13:20:04.846Z,42.80
2017-08-28T13:22:33.082Z,43.10
2017-08-28T13:25:01.531Z,43.50
2017-08-28T13:27:29.936Z,43.90
2017-08-28T13:29:58.238Z,44.20
2017-08-28T13:32:26.459Z,44.50
2017-08-28T13:34:54.805Z,44.80
2017-08-28T13:37:23.051Z,44.80
2017-08-28T13:39:51.293Z,44.80
2017-08-28T13:42:20.534Z,44.60
2017-08-28T13:44:49.538Z,44.10
2017-08-28T13:47:17.775Z,44.20
2017-08-28T13:49:46.146Z,43.20
2017-08-28T13:52:15.543Z,42.70
2017-08-28T13:54:45.254Z,43.10
2017-08-28T13:57:13.929Z,43.60
2017-08-28T13:59:42.174Z,44.00
2017-08-28T14:02:10.410Z,44.40
2017-08-28T14:04:38.698Z,44.70
2017-08-28T14:07:07.704Z,44.90
2017-08-28T14:09:37.886Z,44.80
2017-08-28T14:12:06.142Z,44.90
2017-08-28T14:14:35.254Z,45.00
2017-08-28T14:17:03.495Z,45.10
2017-08-28T14:19:32.077Z,45.20
2017-08-28T14:22:00.414Z,45.40
2017-08-28T14:24:28.650Z,45.70
2017-08-28T14:26:57.673Z,45.90
2017-08-28T14:29:26.142Z,45.90
2017-08-28T14:31:54.381Z,45.80
2017-08-28T14:34:23.862Z,45.10
2017-08-28T14:36:52.864Z,42.80
2017-08-28T14:39:21.861Z,42.90
2017-08-28T14:41:50.305Z,42.80
2017-08-28T14:44:18.887Z,42.90
2017-08-28T14:46:47.252Z,42.30
2017-08-28T14:49:15.670Z,41.50
2017-08-28T14:51:44.011Z,41.10
2017-08-28T14:54:12.388Z,40.70
2017-08-28T14:56:40.790Z,40.00
2017-08-28T14:59:09.170Z,40.30
2017-08-28T15:01:38.447Z,41.60
2017-08-28T15:04:06.911Z,42.70
2017-08-28T15:06:35.205Z,43.20
2017-08-28T15:09:03.586Z,43.60
2017-08-28T15:11:32.173Z,43.70
2017-08-28T15:14:00.394Z,43.80
2017-08-28T15:16:29.041Z,43.90
2017-08-28T15:18:57.438Z,44.00
2017-08-28T15:21:25.800Z,44.00
2017-08-28T15:23:54.173Z,44.10
2017-08-28T15:26:23.859Z,44.10
2017-08-28T15:28:52.099Z,44.10
2017-08-28T15:31:21.451Z,44.00
2017-08-28T15:33:50.050Z,44.10
2017-08-28T15:36:18.270Z,44.50
2017-08-28T15:38:46.588Z,44.60
2017-08-28T15:41:14.860Z,44.70
2017-08-28T15:43:43.114Z,44.80
2017-08-28T15:46:11.729Z,44.90
2017-08-28T15:48:40.047Z,45.10
2017-08-28T15:51:08.494Z,45.10
2017-08-28T15:53:36.861Z,45.20
2017-08-28T15:56:08.347Z,45.30
2017-08-28T15:58:37.351Z,44.80
2017-08-28T16:01:06.614Z,44.70
2017-08-28T16:03:35.022Z,44.50
2017-08-28T16:06:03.366Z,44.40
2017-08-28T16:08:32.670Z,44.40
2017-08-28T16:11:01.257Z,44.10
2017-08-28T16:13:29.483Z,44.10
2017-08-28T16:15:57.717Z,43.90
2017-08-28T16:18:27.307Z,43.50
2017-08-28T16:20:55.528Z,43.10
2017-08-28T16:23:23.766Z,43.10
2017-08-28T16:25:52.033Z,43.00
2017-08-28T16:28:20.310Z,42.60
2017-08-28T16:30:48.697Z,42.50
2017-08-28T16:33:17.449Z,42.50
2017-08-28T16:35:45.753Z,42.50
2017-08-28T16:38:14.133Z,42.70
2017-08-28T16:40:42.542Z,42.70
2017-08-28T16:43:10.894Z,42.60
2017-08-28T16:45:39.477Z,42.50
2017-08-28T16:48:07.717Z,42.40
2017-08-28T16:50:36.858Z,42.10
2017-08-28T16:53:05.099Z,41.90
2017-08-28T16:55:33.430Z,41.70
2017-08-28T16:58:01.672Z,41.50
2017-08-28T17:00:29.911Z,41.40
2017-08-28T17:02:58.254Z,41.20
2017-08-28T17:05:26.486Z,41.00
2017-08-28T17:07:54.746Z,40.90
2017-08-28T17:10:22.995Z,40.70
2017-08-28T17:12:51.438Z,40.50
2017-08-28T17:15:19.715Z,40.10
2017-08-28T17:17:48.079Z,39.30
2017-08-28T17:20:16.783Z,38.40
2017-08-28T17:22:46.942Z,37.50
2017-08-28T17:25:15.210Z,36.70
2017-08-28T17:27:43.454Z,36.10
2017-08-28T17:30:11.690Z,35.50
2017-08-28T17:32:39.949Z,35.10
2017-08-28T17:35:08.198Z,34.70
2017-08-28T17:37:36.469Z,34.40
2017-08-28T17:40:04.974Z,34.10
2017-08-28T17:42:33.219Z,33.90
2017-08-28T17:45:01.462Z,33.60
2017-08-28T17:47:29.729Z,33.40
2017-08-28T17:49:57.976Z,33.20
2017-08-28T17:52:26.202Z,32.90
2017-08-28T17:54:54.513Z,32.80
2017-08-28T17:57:22.882Z,32.60
2017-08-28T17:59:51.271Z,32.30
2017-08-28T18:02:20.030Z,32.10
2017-08-28T18:04:48.321Z,31.90
2017-08-28T18:07:17.258Z,31.80
2017-08-28T18:09:45.530Z,31.60
2017-08-28T18:12:13.772Z,31.40
2017-08-28T18:14:42.014Z,31.30
2017-08-28T18:17:11.470Z,31.20
2017-08-28T18:19:39.819Z,31.00
2017-08-28T18:22:08.238Z,30.80
2017-08-28T18:24:36.730Z,30.70
2017-08-28T18:27:06.395Z,30.50
2017-08-28T18:29:39.686Z,30.30
2017-08-28T18:32:08.130Z,30.30
2017-08-28T18:34:36.370Z,30.20
2017-08-28T18:37:04.650Z,30.00
2017-08-28T18:39:32.901Z,29.80
2017-08-28T18:42:02.314Z,29.70
2017-08-28T18:44:30.610Z,29.60
2017-08-28T18:46:59.150Z,29.50
2017-08-28T18:49:27.383Z,29.30
2017-08-28T18:51:55.646Z,29.30
2017-08-28T18:54:23.887Z,29.20
2017-08-28T18:56:52.122Z,29.10
2017-08-28T18:59:20.395Z,29.00
2017-08-28T19:01:48.714Z,28.90
2017-08-28T19:04:17.666Z,28.80
2017-08-28T19:06:45.990Z,28.70
2017-08-28T19:09:15.390Z,28.60
2017-08-28T19:11:43.778Z,28.60
2017-08-28T19:14:16.170Z,28.50
2017-08-28T19:16:45.194Z,28.30
2017-08-28T19:19:13.438Z,28.30
2017-08-28T19:21:41.709Z,28.30
2017-08-28T19:24:10.780Z,28.20
2017-08-28T19:26:39.014Z,28.10
2017-08-28T19:29:07.536Z,27.90
2017-08-28T19:31:35.774Z,27.80
2017-08-28T19:34:08.130Z,27.70
2017-08-28T19:36:36.467Z,27.60
2017-08-28T19:39:04.705Z,27.50
2017-08-28T19:41:32.981Z,27.50
2017-08-28T19:44:01.225Z,27.40
2017-08-28T19:46:29.472Z,27.30
2017-08-28T19:48:57.853Z,27.20
2017-08-28T19:51:26.103Z,27.20
2017-08-28T19:53:54.342Z,27.00
2017-08-28T19:56:22.616Z,27.00
2017-08-28T19:58:50.958Z,26.90
2017-08-28T20:01:19.535Z,26.80
2017-08-28T20:03:47.798Z,26.70
2017-08-28T20:06:16.242Z,26.70
2017-08-28T20:08:44.466Z,26.60
2017-08-28T20:11:13.315Z,26.50
2017-08-28T20:13:41.538Z,26.40
2017-08-28T20:16:09.781Z,26.30
2017-08-28T20:18:38.084Z,26.20
2017-08-28T20:21:06.395Z,26.10
2017-08-28T20:23:35.458Z,26.00
2017-08-28T20:26:04.066Z,26.00
2017-08-28T20:28:33.350Z,25.90
2017-08-28T20:31:02.766Z,25.90
2017-08-28T20:33:31.476Z,25.90
2017-08-28T20:35:59.710Z,25.80
2017-08-28T20:38:27.957Z,25.80
2017-08-28T20:40:56.222Z,25.70
2017-08-28T20:43:24.467Z,25.60
2017-08-28T20:45:52.812Z,25.50
2017-08-28T20:48:22.432Z,25.40
2017-08-28T20:50:50.667Z,25.40
2017-08-28T20:53:18.909Z,25.40
2017-08-28T20:55:47.434Z,25.30
2017-08-28T20:58:15.675Z,25.20
2017-08-28T21:00:44.127Z,25.10
2017-08-28T21:03:12.386Z,25.00
2017-08-28T21:05:40.627Z,24.90
2017-08-28T21:08:08.878Z,24.80
2017-08-28T21:10:37.146Z,24.80
2017-08-28T21:13:05.390Z,24.70
2017-08-28T21:15:33.630Z,24.70
2017-08-28T21:18:02.234Z,24.50
2017-08-28T21:20:30.482Z,24.50
2017-08-28T21:22:59.486Z,24.30
2017-08-28T21:25:27.757Z,24.30
2017-08-28T21:27:56.958Z,24.30
2017-08-28T21:30:25.202Z,24.20
2017-08-28T21:32:53.476Z,24.10
2017-08-28T21:35:21.721Z,24.10
2017-08-28T21:37:49.966Z,23.90
2017-08-28T21:40:18.562Z,23.80
2017-08-28T21:42:46.806Z,23.70
2017-08-28T21:45:15.045Z,23.70
2017-08-28T21:47:43.314Z,23.60
2017-08-28T21:50:11.689Z,23.60
2017-08-28T21:52:39.933Z,23.50
2017-08-28T21:55:08.198Z,23.40
2017-08-28T21:57:36.450Z,23.30
2017-08-28T22:00:04.702Z,23.30
2017-08-28T22:02:33.186Z,23.10
2017-08-28T22:05:01.430Z,23.00
2017-08-28T22:07:29.678Z,23.00
2017-08-28T22:09:57.941Z,23.00
2017-08-28T22:12:26.194Z,23.00
2017-08-28T22:14:54.438Z,23.00
2017-08-28T22:17:22.704Z,23.00
2017-08-28T22:19:50.946Z,22.90
2017-08-28T22:22:19.190Z,22.80
2017-08-28T22:24:47.805Z,22.80
2017-08-28T22:27:16.814Z,22.60
2017-08-28T22:29:45.482Z,22.60
2017-08-28T22:32:14.522Z,22.50
2017-08-28T22:34:42.762Z,22.50
2017-08-28T22:37:11.006Z,22.50
2017-08-28T22:39:39.279Z,22.40
2017-08-28T22:42:07.523Z,22.40
2017-08-28T22:44:35.775Z,22.30
2017-08-28T22:47:05.062Z,22.30
2017-08-28T22:49:34.078Z,22.20
2017-08-28T22:52:02.322Z,22.20
2017-08-28T22:54:30.597Z,22.10
2017-08-28T22:56:58.843Z,22.10
2017-08-28T22:59:27.082Z,22.10
2017-08-28T23:01:55.349Z,22.10
2017-08-28T23:04:23.670Z,22.00
2017-08-28T23:06:51.909Z,21.90
2017-08-28T23:09:20.223Z,21.90
2017-08-28T23:11:48.469Z,21.80
2017-08-28T23:14:16.894Z,21.80
2017-08-28T23:16:45.157Z,21.70
2017-08-28T23:19:13.398Z,21.70
2017-08-28T23:21:41.637Z,21.70
2017-08-28T23:24:09.918Z,21.70
2017-08-28T23:26:38.926Z,21.60
2017-08-28T23:29:07.186Z,21.60
2017-08-28T23:31:35.937Z,21.60
2017-08-28T23:34:04.181Z,21.60
2017-08-28T23:36:32.430Z,21.50
2017-08-28T23:39:00.694Z,21.50
2017-08-28T23:41:28.925Z,21.40
2017-08-28T23:43:57.183Z,21.30
2017-08-28T23:46:25.530Z,21.30
2017-08-28T23:48:53.770Z,21.30
2017-08-28T23:51:22.032Z,21.20
2017-08-28T23:53:50.678Z,21.20
2017-08-28T23:56:19.691Z,21.10
2017-08-28T23:58:47.946Z,21.10
